Lunenburg, Massachusetts
Current Conditions -  °F | °C
As of 11:52 PM on Sunday 21 Dec 2014 (Local Time) from KFIT Reporting Station
Overcast Overcast  
Wind Chill: 33°   Ceiling: 4800
Heat Index: 33°   Visibility: 10mi
Dew Point: 26°   Wind: 0mph
Humidity: 75%   Direction: NA
Pressure: 30.37"   Gusts: NA
Location:  42.6°N, 71.72°W
Report Text: KFIT 220452Z AUTO 00000KT 10SM OVC048 01/M03 A3037 RMK AO2 SLP288 T00061033 400171011
Loading
Personal Weather Stations






























Interactive Weather Map New forecast layout! Learn more

10-Day Weather Forecast

Advertisements
Track Severe Weather on mobile